Terminal Aerodrome Forecast
Issued by NWS

Home | Current Version | Previous Version | Graphics & Text | Print | Product List | Glossary On
Versions: 1 2 3 4 5 6 7 8 9 10 11 12 13 14 15 16 17 18 19
000
FTUS43 KOAX 231626 AAA
TAFCDR
TAF AMD
KCDR 231626Z 2316/2412 27016G24KT P6SM FEW250
     FM232000 34012G20KT P6SM SKC
     FM240300 05005KT P6SM SKC=

USA.gov is the U.S. government's official web portal to all federal, state and local government web resources and services.